CheckWX is a tool to help pilots better visualize weather data.  It is not intended as a substitute for an official pre-flight weather briefing.

05:15:45 UTC

KBLI TAF
Bellingham International Airport
Bellingham, Washington, USA
KBLI 232320Z 2400/2424 15008KT P6SM VCSH BKN025 BKN040 FM241000 04010KT P6SM -SHSN BKN025 BKN040 FM241500 04014KT P6SM SCT030 BKN050

Feb-24@
00:00 UTC

Feb-24 @ 00:00 UTC

Feb-24@
10:00 UTC

Feb-24 @ 10:00 UTC

KBLI 232320Z 2400/2424 15008KT P6SM VCSH BKN025 BKN040
Wind
  • 150° at 8 KTS
Cloud Levels
  • Broken at 2,500' AGL
  • Broken at 4,000' AGL

Feb-24@
10:00 UTC

Feb-24 @ 10:00 UTC

Feb-24@
15:00 UTC

Feb-24 @ 15:00 UTC

FM241000 04010KT P6SM -SHSN BKN025 BKN040

From

From Standard forecast or significant change

Wind
  • 040° at 10 KTS
Conditions
Light Snow
Cloud Levels
  • Broken at 2,500' AGL
  • Broken at 4,000' AGL

Feb-24@
15:00 UTC

Feb-24 @ 15:00 UTC

Feb-25@
00:00 UTC

Feb-25 @ 00:00 UTC

FM241500 04014KT P6SM SCT030 BKN050

From

From Standard forecast or significant change

Wind
  • 040° at 14 KTS
Cloud Levels
  • Scattered at 3,000' AGL
  • Broken at 5,000' AGL